Time;durP1;ratioP1;P1;durP2;ratioP2;P2;SDS_P1;SDS_P2;PMS_P1;PMS_P2;Temp;Humidity;BMP_temperature;BMP_pressure;BME280_temperature;BME280_humidity;BME280_pressure;Samples;Min_cycle;Max_cycle;Signal;HPM_P1;HPM_P2
2023/01/15 00:02:08;;;;;;;;;;;;;;;25.32;50.60;97476.20;617666;229;66698;-67
2023/01/15 00:04:36;;;;;;;;;;;;;;;25.31;50.45;97483.48;617653;229;67076;-67
2023/01/15 00:07:03;;;;;;;;;;;;;;;25.31;49.90;97475.41;617654;229;62982;-67
2023/01/15 00:09:31;;;;;;;;;;;;;;;25.29;50.63;97472.23;617711;229;67449;-67
2023/01/15 00:11:59;;;;;;;;;;;;;;;25.29;51.07;97469.55;617757;229;67072;-67
2023/01/15 00:14:27;;;;;;;;;;;;;;;25.28;50.02;97462.55;617702;229;64999;-67
2023/01/15 00:16:54;;;;;;;;;;;;;;;25.28;50.03;97465.23;617678;229;67117;-67
2023/01/15 00:19:22;;;;;;;;;;;;;;;25.27;51.22;97460.95;617702;229;67088;-67
2023/01/15 00:21:50;;;;;;;;;;;;;;;25.26;50.04;97475.47;617731;229;65091;-67
2023/01/15 00:29:48;;;;;;;;;;;;;;;25.23;50.71;97474.16;617703;229;65971;-67
2023/01/15 00:32:16;;;;;;;;;;;;;;;25.22;49.92;97479.84;617692;229;67296;-67
2023/01/15 00:34:43;;;;;;;;;;;;;;;25.22;51.10;97474.46;617624;229;67134;-67
2023/01/15 00:37:11;;;;;;;;;;;;;;;25.21;50.58;97472.87;617694;229;62864;-67
2023/01/15 00:39:38;;;;;;;;;;;;;;;25.19;50.38;97470.45;617714;229;67142;-67
2023/01/15 00:42:06;;;;;;;;;;;;;;;25.19;51.45;97472.34;617730;229;67722;-67
2023/01/15 00:44:33;;;;;;;;;;;;;;;25.19;50.87;97469.66;617714;229;62930;-67
2023/01/15 00:47:01;;;;;;;;;;;;;;;25.17;50.65;97461.86;617695;229;64805;-67
2023/01/15 00:49:29;;;;;;;;;;;;;;;25.17;50.43;97472.63;617732;229;67146;-66
2023/01/15 00:51:56;;;;;;;;;;;;;;;25.16;50.66;97462.17;617712;229;64938;-66
2023/01/15 00:54:24;;;;;;;;;;;;;;;25.15;51.85;97463.23;617742;229;67214;-66
2023/01/15 00:56:53;;;;;;;;;;;;;;;25.14;50.79;97464.30;617660;229;64906;-66
2023/01/15 00:59:20;;;;;;;;;;;;;;;25.14;49.71;97458.92;617700;229;64873;-66
2023/01/15 01:01:48;;;;;;;;;;;;;;;25.13;50.42;97451.95;617692;229;64868;-66
2023/01/15 01:04:15;;;;;;;;;;;;;;;25.12;50.57;97450.34;617722;229;65183;-66
2023/01/15 01:06:43;;;;;;;;;;;;;;;25.11;50.37;97449.54;617733;229;65034;-66
2023/01/15 01:09:14;;;;;;;;;;;;;;;25.11;50.62;97459.50;617681;229;67655;-66
2023/01/15 01:11:43;;;;;;;;;;;;;;;25.10;49.08;97453.33;617689;229;64581;-66
2023/01/15 01:14:11;;;;;;;;;;;;;;;25.09;50.42;97445.53;617718;229;65311;-66
2023/01/15 01:16:40;;;;;;;;;;;;;;;25.08;49.99;97446.63;617721;229;66932;-67
2023/01/15 01:19:10;;;;;;;;;;;;;;;25.07;50.14;97442.33;617742;229;67243;-67
2023/01/15 01:21:38;;;;;;;;;;;;;;;25.07;50.46;97445.02;617442;228;65073;-68
2023/01/15 01:24:06;;;;;;;;;;;;;;;25.06;50.01;97446.11;617708;229;67415;-68
2023/01/15 01:26:34;;;;;;;;;;;;;;;25.06;50.80;97446.11;617688;229;67000;-68
2023/01/15 01:29:03;;;;;;;;;;;;;;;25.05;51.33;97439.94;617684;229;62825;-68
2023/01/15 01:31:30;;;;;;;;;;;;;;;25.04;50.43;97438.32;617676;229;67158;-68
2023/01/15 01:33:59;;;;;;;;;;;;;;;25.03;49.25;97442.11;617656;228;65662;-68
2023/01/15 01:36:28;;;;;;;;;;;;;;;25.03;50.90;97444.80;617703;229;64998;-68
2023/01/15 01:38:56;;;;;;;;;;;;;;;25.01;49.84;97453.14;617476;228;64901;-68
2023/01/15 01:41:24;;;;;;;;;;;;;;;25.01;51.12;97441.59;617694;229;64761;-68
2023/01/15 01:43:58;;;;;;;;;;;;;;;24.99;51.18;97439.20;617735;228;47049;-68
2023/01/15 01:46:26;;;;;;;;;;;;;;;24.98;51.63;97434.89;617672;229;67167;-68
2023/01/15 01:48:55;;;;;;;;;;;;;;;24.97;51.12;97425.23;617710;229;64472;-68
2023/01/15 01:51:25;;;;;;;;;;;;;;;24.96;52.08;97429.02;617706;229;65744;-68
2023/01/15 01:53:52;;;;;;;;;;;;;;;24.96;52.11;97429.02;617683;229;67017;-68
2023/01/15 01:56:20;;;;;;;;;;;;;;;24.94;50.88;97431.19;617698;229;66891;-68
2023/01/15 01:58:49;;;;;;;;;;;;;;;24.94;51.24;97427.70;617703;229;62778;-68
2023/01/15 02:01:17;;;;;;;;;;;;;;;24.91;51.43;97428.25;617706;229;67969;-68
2023/01/15 02:03:45;;;;;;;;;;;;;;;24.91;51.27;97423.70;617726;229;66778;-68
2023/01/15 02:06:13;;;;;;;;;;;;;;;24.90;52.20;97419.39;617700;229;62790;-68
2023/01/15 02:08:41;;;;;;;;;;;;;;;24.89;51.04;97420.48;617685;228;64862;-68
2023/01/15 02:11:10;;;;;;;;;;;;;;;24.88;53.01;97416.21;617694;229;65231;-68
2023/01/15 02:13:39;;;;;;;;;;;;;;;24.87;51.55;97413.80;617626;228;63821;-68
2023/01/15 02:16:17;;;;;;;;;;;;;;;24.86;51.73;97410.31;617690;229;67141;-68
2023/01/15 02:18:46;;;;;;;;;;;;;;;24.87;52.46;97411.11;617632;228;66911;-68
2023/01/15 02:21:16;;;;;;;;;;;;;;;24.86;52.87;97409.52;617623;228;65031;-68
2023/01/15 02:23:48;;;;;;;;;;;;;;;24.85;51.77;97408.69;617688;227;68059;-67
2023/01/15 02:26:33;;;;;;;;;;;;;;;24.84;51.04;97417.06;617644;229;67494;-67
2023/01/15 02:29:02;;;;;;;;;;;;;;;24.83;51.96;97402.83;617734;229;65768;-67
2023/01/15 02:31:40;;;;;;;;;;;;;;;24.81;52.31;97405.78;617679;229;64730;-67
2023/01/15 02:34:13;;;;;;;;;;;;;;;24.80;52.02;97400.72;617649;229;67551;-66
2023/01/15 02:36:43;;;;;;;;;;;;;;;24.79;51.47;97391.83;617653;229;62960;-67
2023/01/15 02:39:13;;;;;;;;;;;;;;;24.79;52.81;97383.77;617653;228;47031;-67
2023/01/15 02:41:43;;;;;;;;;;;;;;;24.77;51.44;97387.82;617681;229;67523;-67
2023/01/15 02:44:13;;;;;;;;;;;;;;;24.77;52.95;97385.13;617541;228;68026;-67
2023/01/15 02:46:43;;;;;;;;;;;;;;;24.76;53.45;97387.03;617677;229;67318;-67
2023/01/15 02:49:12;;;;;;;;;;;;;;;24.75;53.92;97388.13;617675;229;65153;-67
2023/01/15 02:51:42;;;;;;;;;;;;;;;24.74;51.42;97397.25;617687;229;65076;-67
2023/01/15 02:54:12;;;;;;;;;;;;;;;24.73;51.49;97392.19;617707;229;68029;-67
2023/01/15 02:56:40;;;;;;;;;;;;;;;24.72;51.34;97393.28;617674;227;66935;-67
2023/01/15 02:59:09;;;;;;;;;;;;;;;24.73;51.88;97389.49;617710;229;62947;-67
2023/01/15 03:01:40;;;;;;;;;;;;;;;24.72;51.64;97398.66;617661;229;67650;-67
2023/01/15 03:04:16;;;;;;;;;;;;;;;24.71;53.44;97391.66;616911;228;64766;-67
2023/01/15 03:06:44;;;;;;;;;;;;;;;24.69;51.45;97389.28;617447;228;64867;-67
2023/01/15 03:09:14;;;;;;;;;;;;;;;24.68;52.33;97389.55;617691;228;67436;-67
2023/01/15 03:11:46;;;;;;;;;;;;;;;24.68;53.60;97386.86;617715;229;67700;-67
2023/01/15 03:14:18;;;;;;;;;;;;;;;24.68;51.90;97386.86;617658;228;65260;-67
2023/01/15 03:16:47;;;;;;;;;;;;;;;24.67;52.18;97390.64;617679;229;67265;-67
2023/01/15 03:19:35;;;;;;;;;;;;;;;24.67;54.01;97386.06;617483;228;64347;-67
2023/01/15 03:22:04;;;;;;;;;;;;;;;24.65;52.82;97387.44;617609;228;65696;-68
2023/01/15 03:24:33;;;;;;;;;;;;;;;24.65;53.20;97382.06;617437;228;67926;-68
2023/01/15 03:27:01;;;;;;;;;;;;;;;24.63;52.96;97376.16;617643;228;65234;-68
2023/01/15 03:29:30;;;;;;;;;;;;;;;24.62;52.83;97378.05;617668;229;65750;-68
2023/01/15 03:31:59;;;;;;;;;;;;;;;24.61;52.60;97376.47;617705;229;67203;-67
2023/01/15 03:34:28;;;;;;;;;;;;;;;24.61;52.89;97375.64;618143;229;64658;-67
2023/01/15 03:36:55;;;;;;;;;;;;;;;24.60;53.16;97380.22;618700;228;65975;-67
2023/01/15 03:39:24;;;;;;;;;;;;;;;24.58;53.07;97383.21;618778;229;67320;-67
2023/01/15 03:41:58;;;;;;;;;;;;;;;24.58;54.40;97379.70;618849;228;44038;-67
2023/01/15 03:44:28;;;;;;;;;;;;;;;24.56;54.59;97382.69;618800;228;62737;-67
2023/01/15 03:47:07;;;;;;;;;;;;;;;24.56;52.87;97385.38;618892;229;63948;-67
2023/01/15 03:49:39;;;;;;;;;;;;;;;24.56;52.28;97381.89;618874;229;67343;-67
2023/01/15 03:52:09;;;;;;;;;;;;;;;24.53;53.46;97379.78;618798;228;43738;-67
2023/01/15 03:54:41;;;;;;;;;;;;;;;24.53;52.83;97383.27;618779;228;64565;-67
2023/01/15 03:57:16;;;;;;;;;;;;;;;24.52;52.37;97384.33;618820;228;66861;-67
2023/01/15 03:59:46;;;;;;;;;;;;;;;24.51;53.05;97388.11;618647;228;65669;-67
2023/01/15 04:02:14;;;;;;;;;;;;;;;24.51;53.94;97382.73;618591;228;64875;-67
2023/01/15 04:04:43;;;;;;;;;;;;;;;24.51;53.58;97379.26;618854;229;66833;-66
2023/01/15 04:07:10;;;;;;;;;;;;;;;24.50;54.51;97383.83;618856;229;64857;-67
2023/01/15 04:09:40;;;;;;;;;;;;;;;24.49;54.96;97384.91;618938;229;64500;-67
2023/01/15 04:12:09;;;;;;;;;;;;;;;24.49;54.11;97386.80;618932;228;45732;-67
2023/01/15 04:14:38;;;;;;;;;;;;;;;24.47;52.83;97386.27;618847;228;42184;-67
2023/01/15 04:17:08;;;;;;;;;;;;;;;24.46;53.82;97390.05;618873;228;45481;-67
2023/01/15 04:19:35;;;;;;;;;;;;;;;24.45;53.08;97394.63;618843;229;64839;-67
2023/01/15 04:22:05;;;;;;;;;;;;;;;24.45;53.75;97400.00;618889;228;43429;-67
2023/01/15 04:24:32;;;;;;;;;;;;;;;24.44;54.13;97406.44;618878;229;67179;-67
2023/01/15 04:27:00;;;;;;;;;;;;;;;24.44;53.19;97403.75;618861;229;67056;-68
2023/01/15 04:29:27;;;;;;;;;;;;;;;24.43;53.63;97402.13;618844;229;65149;-67
2023/01/15 04:31:56;;;;;;;;;;;;;;;24.41;52.01;97398.92;618858;229;67203;-68
2023/01/15 04:34:25;;;;;;;;;;;;;;;24.41;54.03;97398.92;618335;229;66780;-68
2023/01/15 04:36:53;;;;;;;;;;;;;;;24.40;53.57;97397.33;617774;229;65011;-68
2023/01/15 04:39:20;;;;;;;;;;;;;;;24.39;53.31;97403.80;617672;229;67266;-68
2023/01/15 04:44:35;;;;;;;;;;;;;;;24.37;53.06;97398.70;617742;229;65106;-68
2023/01/15 04:47:03;;;;;;;;;;;;;;;24.37;53.59;97398.70;617697;229;67392;-68
2023/01/15 04:49:30;;;;;;;;;;;;;;;24.36;53.94;97412.40;617756;229;66995;-68
2023/01/15 04:51:57;;;;;;;;;;;;;;;24.36;52.88;97415.08;617748;227;63854;-68
2023/01/15 04:54:25;;;;;;;;;;;;;;;24.34;52.67;97417.27;617676;229;67414;-68
2023/01/15 04:56:54;;;;;;;;;;;;;;;24.33;54.64;97412.97;617700;229;67121;-68
2023/01/15 04:59:23;;;;;;;;;;;;;;;24.33;55.50;97413.77;617722;229;62907;-68
2023/01/15 05:01:50;;;;;;;;;;;;;;;24.32;54.34;97417.55;617690;229;66864;-68
2023/01/15 05:04:18;;;;;;;;;;;;;;;24.32;52.71;97424.80;617725;229;65060;-68
2023/01/15 05:06:46;;;;;;;;;;;;;;;24.32;54.40;97430.17;617670;229;62981;-68
2023/01/15 05:09:13;;;;;;;;;;;;;;;24.31;54.59;97425.91;617697;229;67719;-68
2023/01/15 05:11:41;;;;;;;;;;;;;;;24.30;54.01;97429.66;617702;229;67025;-68
2023/01/15 05:14:08;;;;;;;;;;;;;;;24.29;53.66;97426.17;617705;229;65024;-68
2023/01/15 05:16:37;;;;;;;;;;;;;;;24.29;53.04;97428.06;617722;229;67220;-68
2023/01/15 05:19:10;;;;;;;;;;;;;;;24.29;55.02;97425.37;617669;229;64958;-68
2023/01/15 05:21:36;;;;;;;;;;;;;;;24.27;54.52;97431.02;617549;228;65272;-68
2023/01/15 05:24:05;;;;;;;;;;;;;;;24.27;54.58;97430.22;617717;227;67328;-68
2023/01/15 05:26:33;;;;;;;;;;;;;;;24.26;55.00;97434.80;617704;229;66994;-68
2023/01/15 05:29:01;;;;;;;;;;;;;;;24.25;53.88;97432.37;617691;229;62548;-68
2023/01/15 05:31:29;;;;;;;;;;;;;;;24.24;53.55;97430.78;617704;229;65119;-68
2023/01/15 05:33:57;;;;;;;;;;;;;;;24.24;53.37;97430.78;617925;229;67002;-68
2023/01/15 05:36:26;;;;;;;;;;;;;;;24.22;52.48;97424.89;618821;229;65008;-68
2023/01/15 05:38:54;;;;;;;;;;;;;;;24.22;52.14;97428.38;618824;229;64982;-68
2023/01/15 05:44:08;;;;;;;;;;;;;;;24.20;54.07;97424.36;618842;229;65126;-68
2023/01/15 05:46:37;;;;;;;;;;;;;;;24.19;53.71;97426.25;618851;229;67289;-68
2023/01/15 05:49:06;;;;;;;;;;;;;;;24.18;54.36;97429.23;618840;229;64553;-68
2023/01/15 05:51:35;;;;;;;;;;;;;;;24.19;54.18;97422.77;618570;228;63048;-68
2023/01/15 05:54:03;;;;;;;;;;;;;;;24.15;53.24;97423.34;618794;229;67183;-68
2023/01/15 05:56:31;;;;;;;;;;;;;;;24.16;55.27;97421.45;618734;229;67547;-68
2023/01/15 05:58:58;;;;;;;;;;;;;;;24.15;53.89;97415.28;618839;229;64982;-68
2023/01/15 06:01:26;;;;;;;;;;;;;;;24.13;54.29;97420.13;618782;229;67266;-68
2023/01/15 06:03:54;;;;;;;;;;;;;;;24.12;53.44;97413.16;618823;229;67128;-68
2023/01/15 06:06:22;;;;;;;;;;;;;;;24.13;53.81;97412.07;618784;229;62900;-68
2023/01/15 06:08:49;;;;;;;;;;;;;;;24.12;53.54;97413.16;618776;229;67172;-68
2023/01/15 06:11:17;;;;;;;;;;;;;;;24.11;54.75;97410.75;618837;229;67742;-68
2023/01/15 06:13:44;;;;;;;;;;;;;;;24.10;53.82;97412.64;618813;229;65051;-68
2023/01/15 06:16:12;;;;;;;;;;;;;;;24.09;55.67;97408.36;618785;229;66882;-68
2023/01/15 06:18:40;;;;;;;;;;;;;;;24.08;54.63;97404.05;618799;229;67036;-68
2023/01/15 06:21:09;;;;;;;;;;;;;;;24.07;54.84;97394.41;618751;229;63084;-68
2023/01/15 06:23:37;;;;;;;;;;;;;;;24.07;55.37;97391.72;618782;229;67433;-68
2023/01/15 06:26:06;;;;;;;;;;;;;;;24.06;53.42;97394.67;618771;229;67031;-68
2023/01/15 06:28:34;;;;;;;;;;;;;;;24.06;55.05;97395.50;618755;229;65016;-68
2023/01/15 06:31:03;;;;;;;;;;;;;;;24.05;53.09;97396.56;618775;229;67205;-68
2023/01/15 06:33:30;;;;;;;;;;;;;;;24.05;52.84;97393.09;618636;228;65743;-68
2023/01/15 06:35:58;;;;;;;;;;;;;;;24.05;54.63;97385.03;617681;229;63104;-68
2023/01/15 06:38:25;;;;;;;;;;;;;;;24.03;53.67;97387.98;617759;229;64922;-68
2023/01/15 06:40:53;;;;;;;;;;;;;;;24.03;55.55;97387.98;617668;229;65003;-68
2023/01/15 06:48:53;;;;;;;;;;;;;;;24.00;54.46;97387.75;617684;229;67141;-66
2023/01/15 06:51:20;;;;;;;;;;;;;;;23.99;53.84;97389.64;617706;229;65092;-69
2023/01/15 06:53:48;;;;;;;;;;;;;;;23.98;53.53;97388.05;617741;229;67202;-67
2023/01/15 06:56:15;;;;;;;;;;;;;;;23.98;54.43;97385.37;617672;228;67037;-67
2023/01/15 06:58:43;;;;;;;;;;;;;;;23.97;53.90;97399.86;617687;229;65007;-67
2023/01/15 07:01:11;;;;;;;;;;;;;;;23.96;55.28;97398.27;617666;229;67233;-66
2023/01/15 07:03:39;;;;;;;;;;;;;;;23.95;53.93;97399.33;617721;229;66832;-67
2023/01/15 07:06:07;;;;;;;;;;;;;;;23.94;54.96;97395.05;617726;229;65217;-67
2023/01/15 07:08:35;;;;;;;;;;;;;;;23.93;53.46;97394.25;617666;229;67315;-67
2023/01/15 07:11:03;;;;;;;;;;;;;;;23.93;54.24;97393.46;617665;229;67332;-67
2023/01/15 07:13:30;;;;;;;;;;;;;;;23.93;54.72;97398.83;617622;227;65024;-67
2023/01/15 07:15:59;;;;;;;;;;;;;;;23.92;53.61;97399.89;617512;229;67167;-67
2023/01/15 07:18:27;;;;;;;;;;;;;;;23.92;55.26;97395.32;617733;229;67003;-67
2023/01/15 07:20:56;;;;;;;;;;;;;;;23.92;53.40;97402.58;617671;229;62800;-66
2023/01/15 07:23:25;;;;;;;;;;;;;;;23.91;53.77;97403.67;617662;229;67260;-67
2023/01/15 07:25:53;;;;;;;;;;;;;;;23.91;55.29;97409.03;617174;228;67007;-66
2023/01/15 07:28:20;;;;;;;;;;;;;;;;;;616784;229;64986;-67
2023/01/15 07:30:47;;;;;;;;;;;;;;;23.91;53.40;97412.52;616679;229;63528;-66
2023/01/15 07:33:15;;;;;;;;;;;;;;;23.91;55.45;97406.35;616819;229;64915;-66
2023/01/15 07:35:41;;;;;;;;;;;;;;;;;;617771;229;65028;-66
2023/01/15 07:38:08;;;;;;;;;;;;;;;23.90;54.96;97420.87;618807;229;66202;-66
2023/01/15 07:40:38;;;;;;;;;;;;;;;23.90;56.64;97423.55;618514;228;64812;-66
2023/01/15 07:51:22;;;;;;;;;;;;;;;23.87;53.81;97416.03;618781;229;65383;-67
2023/01/15 07:53:49;;;;;;;;;;;;;;;23.86;55.56;97422.49;618792;229;66934;-67
2023/01/15 07:56:16;;;;;;;;;;;;;;;23.86;55.50;97415.23;618768;229;66841;-67
2023/01/15 07:58:48;;;;;;;;;;;;;;;23.85;53.89;97418.22;618776;229;64986;-67
2023/01/15 08:01:15;;;;;;;;;;;;;;;23.84;54.42;97419.28;618445;228;44652;-67
2023/01/15 08:03:43;;;;;;;;;;;;;;;23.85;54.89;97418.22;618808;229;64691;-67
2023/01/15 08:06:10;;;;;;;;;;;;;;;23.85;53.03;97418.22;618806;229;62947;-68
2023/01/15 08:08:38;;;;;;;;;;;;;;;23.84;54.07;97412.02;618813;229;64552;-67
2023/01/15 08:16:36;;;;;;;;;;;;;;;23.84;53.24;97398.60;618786;229;66929;-67
2023/01/15 08:19:04;;;;;;;;;;;;;;;23.84;52.78;97403.17;618749;229;65641;-67
2023/01/15 08:21:31;;;;;;;;;;;;;;;23.86;54.89;97401.02;618498;229;65033;-67
2023/01/15 08:23:59;;;;;;;;;;;;;;;23.85;53.37;97394.06;617665;229;66844;-67
2023/01/15 08:26:26;;;;;;;;;;;;;;;23.87;54.38;97398.07;618282;229;67263;-67
2023/01/15 08:28:54;;;;;;;;;;;;;;;23.87;54.62;97397.24;618767;229;65011;-67
2023/01/15 08:31:21;;;;;;;;;;;;;;;23.88;53.95;97401.55;618870;229;67302;-67
2023/01/15 08:33:49;;;;;;;;;;;;;;;23.88;52.83;97390.81;618765;229;67032;-67
2023/01/15 08:36:17;;;;;;;;;;;;;;;23.90;52.63;97399.39;618782;229;64969;-67
2023/01/15 08:38:44;;;;;;;;;;;;;;;23.92;53.63;97399.89;618825;229;67255;-67
2023/01/15 08:41:12;;;;;;;;;;;;;;;23.92;52.78;97391.84;618768;229;67015;-67
2023/01/15 08:43:40;;;;;;;;;;;;;;;23.94;52.50;97397.73;618874;229;64917;-67
2023/01/15 08:46:07;;;;;;;;;;;;;;;23.95;52.55;97390.48;618804;229;64690;-67
2023/01/15 08:48:35;;;;;;;;;;;;;;;23.97;52.44;97394.48;618809;229;64819;-67
2023/01/15 08:51:06;;;;;;;;;;;;;;;23.97;53.01;97389.11;618786;229;62857;-67
2023/01/15 08:53:34;;;;;;;;;;;;;;;23.99;53.22;97386.95;618775;229;67452;-68
2023/01/15 08:56:02;;;;;;;;;;;;;;;24.01;53.47;97390.17;618796;229;67024;-68
2023/01/15 08:58:30;;;;;;;;;;;;;;;24.02;53.20;97386.39;618854;229;64820;-68
2023/01/15 09:00:59;;;;;;;;;;;;;;;24.04;52.68;97388.81;618807;229;67096;-68
2023/01/15 09:03:27;;;;;;;;;;;;;;;24.04;54.24;97383.44;618040;228;67166;-67
2023/01/15 09:05:54;;;;;;;;;;;;;;;24.05;53.03;97383.14;618820;229;62803;-66
2023/01/15 09:08:21;;;;;;;;;;;;;;;24.06;53.54;97379.39;618878;229;64471;-66
2023/01/15 09:10:50;;;;;;;;;;;;;;;24.07;53.49;97369.45;618876;229;66796;-66
2023/01/15 09:13:18;;;;;;;;;;;;;;;24.09;52.74;97365.40;618851;229;65095;-66
2023/01/15 09:15:45;;;;;;;;;;;;;;;24.10;55.17;97356.25;618833;229;64612;-66
2023/01/15 09:18:17;;;;;;;;;;;;;;;24.10;53.03;97358.94;618811;229;64764;-66
2023/01/15 09:20:42;;;;;;;;;;;;;;;24.11;53.85;97355.16;618706;228;65011;-66
2023/01/15 09:23:09;;;;;;;;;;;;;;;24.12;53.38;97346.03;618887;229;66896;-66
2023/01/15 09:25:37;;;;;;;;;;;;;;;24.14;53.63;97346.56;618830;229;66881;-66
2023/01/15 09:28:04;;;;;;;;;;;;;;;24.16;54.55;97332.83;618841;229;65025;-66
2023/01/15 09:30:32;;;;;;;;;;;;;;;24.15;54.97;97340.09;618810;229;67001;-66
2023/01/15 09:33:00;;;;;;;;;;;;;;;24.17;54.85;97337.11;618846;229;66526;-66
2023/01/15 09:35:27;;;;;;;;;;;;;;;24.18;54.57;97336.05;617762;229;64994;-66
2023/01/15 09:37:54;;;;;;;;;;;;;;;24.20;53.70;97333.06;617689;229;66950;-66
2023/01/15 09:40:27;;;;;;;;;;;;;;;24.22;53.85;97330.90;617674;229;67030;-66
2023/01/15 09:42:56;;;;;;;;;;;;;;;24.24;54.95;97323.36;617550;229;64977;-67
2023/01/15 09:45:28;;;;;;;;;;;;;;;24.24;53.81;97321.47;616973;228;66985;-67
2023/01/15 09:48:03;;;;;;;;;;;;;;;24.25;53.97;97316.89;616623;228;66845;-68
2023/01/15 09:50:34;;;;;;;;;;;;;;;24.28;51.69;97308.27;616850;228;63511;-68
2023/01/15 09:53:06;;;;;;;;;;;;;;;24.29;54.15;97307.20;617275;228;66845;-68
2023/01/15 09:55:37;;;;;;;;;;;;;;;24.31;54.25;97302.35;617293;228;64399;-68
2023/01/15 09:58:06;;;;;;;;;;;;;;;24.32;53.76;97298.56;617479;228;62990;-68
2023/01/15 10:00:34;;;;;;;;;;;;;;;24.33;52.97;97294.78;617693;229;64360;-67
2023/01/15 10:03:06;;;;;;;;;;;;;;;24.34;51.43;97282.98;617706;229;64703;-67
2023/01/15 10:05:41;;;;;;;;;;;;;;;24.35;53.67;97285.36;617598;228;64957;-67
2023/01/15 10:08:13;;;;;;;;;;;;;;;24.37;53.88;97277.03;617719;229;67218;-67
2023/01/15 10:10:48;;;;;;;;;;;;;;;24.38;54.09;97270.55;617685;229;64450;-66
2023/01/15 10:13:32;;;;;;;;;;;;;;;24.40;53.28;97268.39;617708;229;62966;-66
2023/01/15 10:16:00;;;;;;;;;;;;;;;24.41;53.84;97263.81;617647;228;64753;-66
2023/01/15 10:18:28;;;;;;;;;;;;;;;24.41;53.81;97259.23;617719;229;64584;-66
2023/01/15 10:21:06;;;;;;;;;;;;;;;24.43;53.65;97253.59;617723;229;65121;-66
2023/01/15 10:23:39;;;;;;;;;;;;;;;24.43;53.75;97250.91;617756;229;64606;-66
2023/01/15 10:26:17;;;;;;;;;;;;;;;24.44;52.67;97237.20;617696;229;66760;-66
2023/01/15 10:28:49;;;;;;;;;;;;;;;24.45;52.98;97241.50;617078;229;62737;-66
2023/01/15 10:31:18;;;;;;;;;;;;;;;24.46;52.13;97243.09;617313;228;66999;-66
2023/01/15 10:33:48;;;;;;;;;;;;;;;24.46;52.65;97243.09;617604;226;66801;-66
2023/01/15 10:36:17;;;;;;;;;;;;;;;24.49;53.35;97233.66;618859;229;64989;-66
2023/01/15 10:38:46;;;;;;;;;;;;;;;24.49;52.58;97234.45;618792;229;66914;-66
2023/01/15 10:41:20;;;;;;;;;;;;;;;24.49;52.83;97212.95;618745;228;66915;-66
2023/01/15 10:43:52;;;;;;;;;;;;;;;24.51;53.70;97210.79;618636;228;64905;-66
2023/01/15 10:46:21;;;;;;;;;;;;;;;24.52;51.90;97212.37;618705;228;66698;-66
2023/01/15 10:48:51;;;;;;;;;;;;;;;24.52;51.43;97207.00;618804;228;66561;-66
2023/01/15 10:51:20;;;;;;;;;;;;;;;24.55;53.00;97200.25;618848;229;65020;-66
2023/01/15 10:53:59;;;;;;;;;;;;;;;24.54;53.14;97194.09;618821;229;66733;-66
2023/01/15 10:56:28;;;;;;;;;;;;;;;24.57;53.14;97187.34;618774;229;64939;-66
2023/01/15 10:59:14;;;;;;;;;;;;;;;24.56;52.09;97183.06;618795;229;65094;-66
2023/01/15 11:01:41;;;;;;;;;;;;;;;24.58;52.77;97183.55;618808;229;64691;-66
2023/01/15 11:04:12;;;;;;;;;;;;;;;24.58;53.30;97173.63;618806;229;64717;-66
2023/01/15 11:06:39;;;;;;;;;;;;;;;24.59;53.12;97169.05;618877;229;62876;-66
2023/01/15 11:09:08;;;;;;;;;;;;;;;24.59;51.38;97159.09;618796;229;66883;-66
2023/01/15 11:20:18;;;;;;;;;;;;;;;24.64;53.02;97141.31;618805;229;66849;-66
2023/01/15 11:22:45;;;;;;;;;;;;;;;24.65;52.36;97140.21;612600;229;63932;-66
2023/01/15 11:25:13;;;;;;;;;;;;;;;24.65;51.98;97135.63;618781;229;67128;-66
2023/01/15 11:27:41;;;;;;;;;;;;;;;24.65;52.53;97130.25;618813;229;66632;-66
2023/01/15 11:30:10;;;;;;;;;;;;;;;24.65;52.55;97130.25;618751;229;64972;-66
2023/01/15 11:32:38;;;;;;;;;;;;;;;24.66;52.35;97126.47;617432;228;67002;-66
2023/01/15 11:35:10;;;;;;;;;;;;;;;24.66;52.11;97123.78;617084;229;66832;-66
2023/01/15 11:37:37;;;;;;;;;;;;;;;24.68;52.84;97118.13;616905;229;65136;-66
2023/01/15 11:40:07;;;;;;;;;;;;;;;24.68;52.01;97120.81;616932;229;66944;-66
2023/01/15 11:51:10;;;;;;;;;;;;;;;24.71;52.86;97107.58;617680;229;66895;-66
2023/01/15 11:53:41;;;;;;;;;;;;;;;24.71;52.27;97104.10;617688;229;63164;-66
2023/01/15 11:56:12;;;;;;;;;;;;;;;24.72;52.19;97097.66;617668;229;66840;-66
2023/01/15 11:58:41;;;;;;;;;;;;;;;24.72;51.43;97098.45;617691;229;66848;-67
2023/01/15 12:01:10;;;;;;;;;;;;;;;24.73;52.02;97088.48;617441;228;64882;-67
2023/01/15 12:03:39;;;;;;;;;;;;;;;24.73;51.52;97089.28;617662;229;67798;-68
2023/01/15 12:06:08;;;;;;;;;;;;;;;24.74;50.96;97084.70;617792;229;66274;-67
2023/01/15 12:08:43;;;;;;;;;;;;;;;24.76;49.64;97082.52;617743;229;62794;-67
2023/01/15 12:11:15;;;;;;;;;;;;;;;24.77;51.21;97073.36;617571;228;66783;-67
2023/01/15 12:13:42;;;;;;;;;;;;;;;24.78;51.45;97070.39;617676;228;64632;-67
2023/01/15 12:16:17;;;;;;;;;;;;;;;24.79;50.39;97069.28;617516;228;65030;-67
2023/01/15 12:18:48;;;;;;;;;;;;;;;24.79;52.15;97063.91;617495;228;66895;-66
2023/01/15 12:21:23;;;;;;;;;;;;;;;24.81;51.62;97064.42;617701;227;66585;-66
2023/01/15 12:24:08;;;;;;;;;;;;;;;24.81;51.23;97061.73;617624;228;62957;-66
2023/01/15 12:26:44;;;;;;;;;;;;;;;24.84;51.33;97063.03;617778;229;65140;-66
2023/01/15 12:29:13;;;;;;;;;;;;;;;24.84;52.25;97046.91;609558;228;67060;-66
2023/01/15 12:31:48;;;;;;;;;;;;;;;24.86;48.49;97052.80;617615;228;62888;-66
2023/01/15 12:34:17;;;;;;;;;;;;;;;24.88;50.84;97045.24;617611;226;66662;-66
2023/01/15 12:36:46;;;;;;;;;;;;;;;24.88;51.74;97047.93;617731;229;66830;-66
2023/01/15 12:39:15;;;;;;;;;;;;;;;24.89;50.71;97036.07;617611;228;65029;-66
2023/01/15 12:47:18;;;;;;;;;;;;;;;24.92;49.59;97038.17;617744;229;63143;-66
2023/01/15 12:49:49;;;;;;;;;;;;;;;24.94;49.44;97041.36;617717;229;66848;-66
2023/01/15 12:52:23;;;;;;;;;;;;;;;24.95;51.12;97036.78;617653;228;66814;-66
2023/01/15 12:54:58;;;;;;;;;;;;;;;24.95;50.59;97037.57;617747;229;62903;-67
2023/01/15 12:57:33;;;;;;;;;;;;;;;24.96;50.43;97038.36;617652;228;66857;-67
2023/01/15 13:00:02;;;;;;;;;;;;;;;24.96;50.29;97033.81;617726;229;64767;-67
2023/01/15 13:02:31;;;;;;;;;;;;;;;24.97;50.96;97029.22;617757;229;65352;-67
2023/01/15 13:05:03;;;;;;;;;;;;;;;24.98;51.78;97026.22;617615;228;64559;-68
2023/01/15 13:07:41;;;;;;;;;;;;;;;24.99;51.17;97027.02;617458;228;66836;-69
2023/01/15 13:10:19;;;;;;;;;;;;;;;25.00;50.39;97024.04;617361;228;63003;-65
2023/01/15 13:12:47;;;;;;;;;;;;;;;25.02;50.05;97024.55;617705;229;66858;-67
2023/01/15 13:15:21;;;;;;;;;;;;;;;25.03;50.24;97023.45;617727;229;66880;-68
2023/01/15 13:17:49;;;;;;;;;;;;;;;25.05;48.73;97014.30;617588;228;64879;-68
2023/01/15 13:20:21;;;;;;;;;;;;;;;25.05;50.70;97014.30;617507;228;66934;-67
2023/01/15 13:22:57;;;;;;;;;;;;;;;25.07;51.07;97018.26;617737;229;64524;-67
2023/01/15 13:25:31;;;;;;;;;;;;;;;25.07;49.67;97010.19;617454;228;42766;-67
2023/01/15 13:28:00;;;;;;;;;;;;;;;25.08;47.91;97005.64;617620;228;64860;-67
2023/01/15 13:30:32;;;;;;;;;;;;;;;25.08;49.42;97014.50;615639;229;65058;-67
2023/01/15 13:33:01;;;;;;;;;;;;;;;25.10;49.03;97011.49;617732;229;63065;-67
2023/01/15 13:35:30;;;;;;;;;;;;;;;25.09;49.80;97004.53;618476;228;65032;-67
2023/01/15 13:37:59;;;;;;;;;;;;;;;25.11;49.76;97013.11;618803;229;66944;-67
2023/01/15 13:40:34;;;;;;;;;;;;;;;25.11;48.02;97013.11;618790;229;62574;-67
2023/01/15 13:43:03;;;;;;;;;;;;;;;25.12;49.75;97004.73;618427;228;67219;-67
2023/01/15 13:45:38;;;;;;;;;;;;;;;25.14;49.92;97002.54;618823;229;65215;-70
2023/01/15 13:48:10;;;;;;;;;;;;;;;25.15;48.32;97006.05;618874;229;64995;-70
2023/01/15 13:50:38;;;;;;;;;;;;;;;25.15;49.65;97006.05;618724;228;66709;-70
2023/01/15 13:53:24;;;;;;;;;;;;;;;25.16;50.38;97008.45;618777;228;72512;-70